sensor_id;sensor_type;location;lat;lon;timestamp;pressure;altitude;pressure_sealevel;temperature;humidity
35649;BME280;21768;48.562;13.414;2022-09-12T00:00:20;97515.88;;;16.11;77.26
35649;BME280;21768;48.562;13.414;2022-09-12T00:02:51;97516.56;;;16.07;77.38
35649;BME280;21768;48.562;13.414;2022-09-12T00:05:17;97515.75;;;16.08;77.32
35649;BME280;21768;48.562;13.414;2022-09-12T00:07:42;97514.88;;;16.08;77.46
35649;BME280;21768;48.562;13.414;2022-09-12T00:10:08;97509.91;;;16.11;77.48
35649;BME280;21768;48.562;13.414;2022-09-12T00:12:33;97506.69;;;16.15;77.32
35649;BME280;21768;48.562;13.414;2022-09-12T00:14:58;97504.16;;;16.15;77.36
35649;BME280;21768;48.562;13.414;2022-09-12T00:17:24;97507.63;;;16.17;77.53
35649;BME280;21768;48.562;13.414;2022-09-12T00:19:50;97507.56;;;16.15;77.63
35649;BME280;21768;48.562;13.414;2022-09-12T00:22:15;97491.28;;;16.12;77.54
35649;BME280;21768;48.562;13.414;2022-09-12T00:24:41;97495.50;;;16.11;77.71
35649;BME280;21768;48.562;13.414;2022-09-12T00:27:06;97493.81;;;16.12;77.57
35649;BME280;21768;48.562;13.414;2022-09-12T00:29:32;97501.47;;;16.12;77.56
35649;BME280;21768;48.562;13.414;2022-09-12T00:31:57;97497.19;;;16.11;77.72
35649;BME280;21768;48.562;13.414;2022-09-12T00:34:22;97495.56;;;16.13;77.58
35649;BME280;21768;48.562;13.414;2022-09-12T00:36:48;97486.91;;;16.09;77.71
35649;BME280;21768;48.562;13.414;2022-09-12T00:39:14;97491.13;;;16.09;77.76
35649;BME280;21768;48.562;13.414;2022-09-12T00:41:41;97485.94;;;16.06;77.71
35649;BME280;21768;48.562;13.414;2022-09-12T00:46:39;97483.41;;;16.06;77.79
35649;BME280;21768;48.562;13.414;2022-09-12T00:51:57;97489.28;;;16.05;77.68
35649;BME280;21768;48.562;13.414;2022-09-12T00:54:28;97485.81;;;16.03;77.79
35649;BME280;21768;48.562;13.414;2022-09-12T00:56:59;97497.72;;;16.04;77.95
35649;BME280;21768;48.562;13.414;2022-09-12T00:59:30;97480.84;;;16.06;78.08
35649;BME280;21768;48.562;13.414;2022-09-12T01:01:56;97488.59;;;16.09;77.93
35649;BME280;21768;48.562;13.414;2022-09-12T01:04:24;97492.16;;;16.12;77.70
35649;BME280;21768;48.562;13.414;2022-09-12T01:06:55;97490.34;;;16.10;77.27
35649;BME280;21768;48.562;13.414;2022-09-12T01:09:23;97485.94;;;16.06;77.45
35649;BME280;21768;48.562;13.414;2022-09-12T01:11:50;97484.19;;;16.05;77.37
35649;BME280;21768;48.562;13.414;2022-09-12T01:14:18;97481.50;;;16.02;77.57
35649;BME280;21768;48.562;13.414;2022-09-12T01:16:44;97473.88;;;16.02;77.52
35649;BME280;21768;48.562;13.414;2022-09-12T01:38:45;97456.59;;;15.94;77.53
35649;BME280;21768;48.562;13.414;2022-09-12T01:47:44;97446.19;;;15.90;77.56
35649;BME280;21768;48.562;13.414;2022-09-12T01:52:14;97449.69;;;15.92;77.59
35649;BME280;21768;48.562;13.414;2022-09-12T01:55:06;97438.41;;;15.87;77.71
35649;BME280;21768;48.562;13.414;2022-09-12T01:57:38;97443.44;;;15.85;77.68
35649;BME280;21768;48.562;13.414;2022-09-12T02:00:09;97439.91;;;15.82;77.83
35649;BME280;21768;48.562;13.414;2022-09-12T02:02:49;97437.44;;;15.83;77.88
35649;BME280;21768;48.562;13.414;2022-09-12T02:05:40;97445.06;;;15.83;77.73
35649;BME280;21768;48.562;13.414;2022-09-12T02:08:10;97440.50;;;15.76;77.65
35649;BME280;21768;48.562;13.414;2022-09-12T02:10:49;97432.66;;;15.72;77.69
35649;BME280;21768;48.562;13.414;2022-09-12T02:13:21;97439.34;;;15.70;77.67
35649;BME280;21768;48.562;13.414;2022-09-12T02:15:56;97438.25;;;15.64;77.67
35649;BME280;21768;48.562;13.414;2022-09-12T02:18:25;97443.19;;;15.61;77.79
35649;BME280;21768;48.562;13.414;2022-09-12T02:20:53;97430.28;;;15.57;77.65
35649;BME280;21768;48.562;13.414;2022-09-12T02:23:26;97434.41;;;15.55;77.80
35649;BME280;21768;48.562;13.414;2022-09-12T02:26:00;97438.53;;;15.53;77.65
35649;BME280;21768;48.562;13.414;2022-09-12T02:28:30;97433.09;;;15.45;77.49
35649;BME280;21768;48.562;13.414;2022-09-12T02:31:56;97430.56;;;15.45;77.74
35649;BME280;21768;48.562;13.414;2022-09-12T02:34:25;97424.59;;;15.45;77.67
35649;BME280;21768;48.562;13.414;2022-09-12T02:40:01;97425.53;;;15.47;77.79
35649;BME280;21768;48.562;13.414;2022-09-12T02:42:27;97425.69;;;15.50;77.75
35649;BME280;21768;48.562;13.414;2022-09-12T02:44:54;97424.66;;;15.46;77.52
35649;BME280;21768;48.562;13.414;2022-09-12T02:47:35;97423.06;;;15.48;77.76
35649;BME280;21768;48.562;13.414;2022-09-12T02:50:03;97417.31;;;15.52;77.55
35649;BME280;21768;48.562;13.414;2022-09-12T02:52:30;97419.25;;;15.56;77.66
35649;BME280;21768;48.562;13.414;2022-09-12T02:54:56;97426.16;;;15.59;77.55
35649;BME280;21768;48.562;13.414;2022-09-12T02:57:22;97431.22;;;15.59;77.71
35649;BME280;21768;48.562;13.414;2022-09-12T02:59:50;97431.34;;;15.62;77.81
35649;BME280;21768;48.562;13.414;2022-09-12T03:06:15;97428.94;;;15.65;77.78
35649;BME280;21768;48.562;13.414;2022-09-12T03:14:24;97421.47;;;15.68;78.27
35649;BME280;21768;48.562;13.414;2022-09-12T03:22:18;97412.75;;;15.63;78.61
35649;BME280;21768;48.562;13.414;2022-09-12T03:27:34;97418.03;;;15.68;77.95
35649;BME280;21768;48.562;13.414;2022-09-12T03:30:03;97411.88;;;15.62;78.53
35649;BME280;21768;48.562;13.414;2022-09-12T03:32:44;97418.56;;;15.60;78.78
35649;BME280;21768;48.562;13.414;2022-09-12T03:35:11;97413.47;;;15.60;78.88
35649;BME280;21768;48.562;13.414;2022-09-12T03:37:37;97416.78;;;15.58;79.08
35649;BME280;21768;48.562;13.414;2022-09-12T03:40:04;97412.31;;;15.54;79.49
35649;BME280;21768;48.562;13.414;2022-09-12T03:42:29;97414.94;;;15.55;79.48
35649;BME280;21768;48.562;13.414;2022-09-12T03:44:55;97414.06;;;15.55;79.50
35649;BME280;21768;48.562;13.414;2022-09-12T03:47:20;97412.50;;;15.57;79.60
35649;BME280;21768;48.562;13.414;2022-09-12T03:49:46;97404.06;;;15.58;79.58
35649;BME280;21768;48.562;13.414;2022-09-12T03:52:11;97409.25;;;15.61;79.61
35649;BME280;21768;48.562;13.414;2022-09-12T03:54:36;97413.63;;;15.63;79.80
35649;BME280;21768;48.562;13.414;2022-09-12T03:57:02;97412.88;;;15.66;79.90
35649;BME280;21768;48.562;13.414;2022-09-12T03:59:27;97415.63;;;15.71;79.81
35649;BME280;21768;48.562;13.414;2022-09-12T04:01:53;97407.34;;;15.75;79.73
35649;BME280;21768;48.562;13.414;2022-09-12T04:04:18;97414.97;;;15.75;79.66
35649;BME280;21768;48.562;13.414;2022-09-12T04:06:43;97424.44;;;15.77;79.75
35649;BME280;21768;48.562;13.414;2022-09-12T04:09:09;97423.56;;;15.77;79.69
35649;BME280;21768;48.562;13.414;2022-09-12T04:11:34;97421.88;;;15.77;79.70
35649;BME280;21768;48.562;13.414;2022-09-12T04:14:00;97427.97;;;15.81;79.76
35649;BME280;21768;48.562;13.414;2022-09-12T04:16:25;97427.13;;;15.80;79.75
35649;BME280;21768;48.562;13.414;2022-09-12T04:18:51;97416.13;;;15.81;79.57
35649;BME280;21768;48.562;13.414;2022-09-12T04:21:18;97421.22;;;15.81;79.63
35649;BME280;21768;48.562;13.414;2022-09-12T04:23:46;97423.63;;;15.78;79.70
35649;BME280;21768;48.562;13.414;2022-09-12T04:26:12;97426.03;;;15.75;79.81
35649;BME280;21768;48.562;13.414;2022-09-12T04:28:40;97420.22;;;15.78;79.80
35649;BME280;21768;48.562;13.414;2022-09-12T04:31:11;97414.31;;;15.79;79.72
35649;BME280;21768;48.562;13.414;2022-09-12T04:33:38;97416.94;;;15.80;79.68
35649;BME280;21768;48.562;13.414;2022-09-12T04:36:08;97417.00;;;15.82;79.67
35649;BME280;21768;48.562;13.414;2022-09-12T04:38:35;97422.16;;;15.83;79.53
35649;BME280;21768;48.562;13.414;2022-09-12T04:41:09;97420.44;;;15.82;79.50
35649;BME280;21768;48.562;13.414;2022-09-12T04:43:35;97416.94;;;15.80;79.43
35649;BME280;21768;48.562;13.414;2022-09-12T04:46:05;97416.06;;;15.80;79.35
35649;BME280;21768;48.562;13.414;2022-09-12T04:48:30;97416.06;;;15.80;79.57
35649;BME280;21768;48.562;13.414;2022-09-12T04:51:05;97430.47;;;15.79;79.42
35649;BME280;21768;48.562;13.414;2022-09-12T04:53:31;97420.22;;;15.78;79.76
35649;BME280;21768;48.562;13.414;2022-09-12T04:56:00;97422.75;;;15.78;79.58
35649;BME280;21768;48.562;13.414;2022-09-12T04:58:26;97425.38;;;15.79;79.52
35649;BME280;21768;48.562;13.414;2022-09-12T05:00:51;97412.59;;;15.78;79.63
35649;BME280;21768;48.562;13.414;2022-09-12T05:03:16;97425.22;;;15.76;79.76
35649;BME280;21768;48.562;13.414;2022-09-12T05:05:42;97426.97;;;15.77;79.71
35649;BME280;21768;48.562;13.414;2022-09-12T05:08:07;97431.13;;;15.75;79.73
35649;BME280;21768;48.562;13.414;2022-09-12T05:10:33;97429.59;;;15.79;79.70
35649;BME280;21768;48.562;13.414;2022-09-12T05:12:58;97426.97;;;15.77;79.52
35649;BME280;21768;48.562;13.414;2022-09-12T05:15:23;97431.25;;;15.78;79.83
35649;BME280;21768;48.562;13.414;2022-09-12T05:17:49;97429.66;;;15.80;79.82
35649;BME280;21768;48.562;13.414;2022-09-12T05:20:15;97438.16;;;15.81;79.64
35649;BME280;21768;48.562;13.414;2022-09-12T05:22:41;97433.06;;;15.81;79.58
35649;BME280;21768;48.562;13.414;2022-09-12T05:25:07;97433.94;;;15.81;79.46
35649;BME280;21768;48.562;13.414;2022-09-12T05:27:33;97433.16;;;15.82;79.70
35649;BME280;21768;48.562;13.414;2022-09-12T05:29:58;97434.88;;;15.83;79.33
35649;BME280;21768;48.562;13.414;2022-09-12T05:32:23;97442.63;;;15.86;79.42
35649;BME280;21768;48.562;13.414;2022-09-12T05:34:49;97447.59;;;15.83;79.55
35649;BME280;21768;48.562;13.414;2022-09-12T05:37:15;97443.50;;;15.87;79.47
35649;BME280;21768;48.562;13.414;2022-09-12T05:39:40;97441.91;;;15.89;79.38
35649;BME280;21768;48.562;13.414;2022-09-12T05:42:05;97450.47;;;15.91;79.32
35649;BME280;21768;48.562;13.414;2022-09-12T05:44:31;97454.03;;;15.94;79.23
35649;BME280;21768;48.562;13.414;2022-09-12T05:46:57;97454.09;;;15.96;79.11
35649;BME280;21768;48.562;13.414;2022-09-12T05:49:22;97467.84;;;15.99;78.99
35649;BME280;21768;48.562;13.414;2022-09-12T05:51:48;97460.34;;;16.03;78.83
35649;BME280;21768;48.562;13.414;2022-09-12T05:54:17;97457.00;;;16.04;78.71
35649;BME280;21768;48.562;13.414;2022-09-12T05:56:44;97458.00;;;16.07;78.40
35649;BME280;21768;48.562;13.414;2022-09-12T05:59:16;97461.53;;;16.11;78.46
35649;BME280;21768;48.562;13.414;2022-09-12T06:01:41;97459.13;;;16.14;78.31
35649;BME280;21768;48.562;13.414;2022-09-12T06:04:07;97456.72;;;16.17;77.92
35649;BME280;21768;48.562;13.414;2022-09-12T06:06:41;97458.66;;;16.22;77.69
35649;BME280;21768;48.562;13.414;2022-09-12T06:09:09;97459.81;;;16.29;77.78
35649;BME280;21768;48.562;13.414;2022-09-12T06:11:37;97463.97;;;16.27;77.52
35649;BME280;21768;48.562;13.414;2022-09-12T06:14:06;97464.38;;;16.17;76.94
35649;BME280;21768;48.562;13.414;2022-09-12T06:16:33;97465.81;;;16.12;76.79
35649;BME280;21768;48.562;13.414;2022-09-12T06:19:01;97467.50;;;16.11;76.69
35649;BME280;21768;48.562;13.414;2022-09-12T06:21:27;97468.22;;;16.09;76.67
35649;BME280;21768;48.562;13.414;2022-09-12T06:23:55;97468.84;;;16.03;76.70
35649;BME280;21768;48.562;13.414;2022-09-12T06:26:21;97470.31;;;15.98;76.90
35649;BME280;21768;48.562;13.414;2022-09-12T06:28:50;97473.06;;;16.03;77.04
35649;BME280;21768;48.562;13.414;2022-09-12T06:31:18;97470.91;;;16.12;77.21
35649;BME280;21768;48.562;13.414;2022-09-12T06:33:47;97464.50;;;16.20;77.10
35649;BME280;21768;48.562;13.414;2022-09-12T06:36:19;97466.53;;;16.27;77.07
35649;BME280;21768;48.562;13.414;2022-09-12T06:38:45;97459.09;;;16.31;76.75
35649;BME280;21768;48.562;13.414;2022-09-12T06:41:12;97469.50;;;16.38;76.64
35649;BME280;21768;48.562;13.414;2022-09-12T06:43:40;97476.56;;;16.43;76.60
35649;BME280;21768;48.562;13.414;2022-09-12T06:46:06;97475.81;;;16.46;76.53
35649;BME280;21768;48.562;13.414;2022-09-12T06:48:32;97475.81;;;16.46;76.26
35649;BME280;21768;48.562;13.414;2022-09-12T06:53:29;97480.09;;;16.47;76.64
35649;BME280;21768;48.562;13.414;2022-09-12T06:56:02;97476.75;;;16.48;76.19
35649;BME280;21768;48.562;13.414;2022-09-12T06:58:29;97476.03;;;16.50;76.24
35649;BME280;21768;48.562;13.414;2022-09-12T07:01:01;97468.53;;;16.53;75.87
35649;BME280;21768;48.562;13.414;2022-09-12T07:03:28;97468.53;;;16.53;76.03
35649;BME280;21768;48.562;13.414;2022-09-12T07:05:54;97475.53;;;16.59;76.10
35649;BME280;21768;48.562;13.414;2022-09-12T07:08:19;97471.44;;;16.62;76.07
35649;BME280;21768;48.562;13.414;2022-09-12T07:10:45;97469.94;;;16.66;75.80
35649;BME280;21768;48.562;13.414;2022-09-12T07:13:10;97465.84;;;16.70;75.78
35649;BME280;21768;48.562;13.414;2022-09-12T07:15:36;97468.66;;;16.76;75.47
35649;BME280;21768;48.562;13.414;2022-09-12T07:18:02;97475.72;;;16.83;75.85
35649;BME280;21768;48.562;13.414;2022-09-12T07:20:28;97470.94;;;16.90;75.68
35649;BME280;21768;48.562;13.414;2022-09-12T07:22:54;97469.41;;;16.94;75.30
35649;BME280;21768;48.562;13.414;2022-09-12T07:25:19;97480.47;;;16.94;75.27
35649;BME280;21768;48.562;13.414;2022-09-12T07:27:44;97477.97;;;16.96;74.99
35649;BME280;21768;48.562;13.414;2022-09-12T07:30:10;97476.38;;;16.98;74.87
35649;BME280;21768;48.562;13.414;2022-09-12T07:32:36;97479.84;;;17.00;74.83
35649;BME280;21768;48.562;13.414;2022-09-12T07:35:01;97480.13;;;17.06;74.92
35649;BME280;21768;48.562;13.414;2022-09-12T07:37:29;97478.59;;;17.11;75.27
35649;BME280;21768;48.562;13.414;2022-09-12T07:39:56;97470.28;;;17.15;74.99
35649;BME280;21768;48.562;13.414;2022-09-12T07:42:22;97482.47;;;17.22;74.75
35649;BME280;21768;48.562;13.414;2022-09-12T07:44:47;97475.13;;;17.30;74.71
35649;BME280;21768;48.562;13.414;2022-09-12T07:47:13;97476.06;;;17.32;74.37
35649;BME280;21768;48.562;13.414;2022-09-12T07:49:38;97479.56;;;17.35;74.06
35649;BME280;21768;48.562;13.414;2022-09-12T07:52:03;97475.41;;;17.38;73.68
35649;BME280;21768;48.562;13.414;2022-09-12T07:54:29;97483.19;;;17.41;73.44
35649;BME280;21768;48.562;13.414;2022-09-12T07:56:57;97474.84;;;17.45;73.64
35649;BME280;21768;48.562;13.414;2022-09-12T07:59:22;97479.28;;;17.49;73.37
35649;BME280;21768;48.562;13.414;2022-09-12T08:01:48;97495.69;;;17.55;73.34
35649;BME280;21768;48.562;13.414;2022-09-12T08:04:13;97486.56;;;17.62;73.15
35649;BME280;21768;48.562;13.414;2022-09-12T08:06:39;97493.41;;;17.63;72.86
35649;BME280;21768;48.562;13.414;2022-09-12T08:09:04;97491.03;;;17.66;73.01
35649;BME280;21768;48.562;13.414;2022-09-12T08:11:32;97493.75;;;17.71;72.57
35649;BME280;21768;48.562;13.414;2022-09-12T08:13:57;97490.56;;;17.76;72.66
35649;BME280;21768;48.562;13.414;2022-09-12T08:16:26;97493.06;;;17.75;71.99
35649;BME280;21768;48.562;13.414;2022-09-12T08:18:53;97494.88;;;17.77;71.79
35649;BME280;21768;48.562;13.414;2022-09-12T08:21:23;97490.63;;;17.78;71.71
35649;BME280;21768;48.562;13.414;2022-09-12T08:24:00;97500.19;;;17.83;71.72
35649;BME280;21768;48.562;13.414;2022-09-12T08:26:27;97492.78;;;17.89;71.47
35649;BME280;21768;48.562;13.414;2022-09-12T08:28:53;97497.19;;;17.93;70.94
35649;BME280;21768;48.562;13.414;2022-09-12T08:31:21;97502.41;;;17.96;70.98
35649;BME280;21768;48.562;13.414;2022-09-12T08:33:47;97499.16;;;18.00;71.14
35649;BME280;21768;48.562;13.414;2022-09-12T08:36:17;97501.09;;;18.06;71.01
35649;BME280;21768;48.562;13.414;2022-09-12T08:38:46;97505.53;;;18.12;70.58
35649;BME280;21768;48.562;13.414;2022-09-12T08:41:25;97500.66;;;18.18;70.26
35649;BME280;21768;48.562;13.414;2022-09-12T08:49:38;97499.84;;;18.43;69.43
35649;BME280;21768;48.562;13.414;2022-09-12T08:55:33;97497.66;;;19.01;69.48
35649;BME280;21768;48.562;13.414;2022-09-12T08:58:00;97493.97;;;19.18;68.49
35649;BME280;21768;48.562;13.414;2022-09-12T09:00:40;97489.72;;;19.19;68.02
35649;BME280;21768;48.562;13.414;2022-09-12T09:03:22;97498.88;;;19.12;68.72
35649;BME280;21768;48.562;13.414;2022-09-12T09:06:02;97490.09;;;19.04;68.83
35649;BME280;21768;48.562;13.414;2022-09-12T09:08:50;97496.22;;;19.09;69.11
35649;BME280;21768;48.562;13.414;2022-09-12T09:19:46;97483.50;;;19.37;67.77
35649;BME280;21768;48.562;13.414;2022-09-12T09:22:25;97481.47;;;19.53;67.29
35649;BME280;21768;48.562;13.414;2022-09-12T09:24:58;97479.28;;;19.65;66.55
35649;BME280;21768;48.562;13.414;2022-09-12T09:27:35;97470.09;;;19.72;65.66
35649;BME280;21768;48.562;13.414;2022-09-12T09:30:04;97471.19;;;19.80;65.84
35649;BME280;21768;48.562;13.414;2022-09-12T09:32:39;97471.75;;;19.98;65.79
35649;BME280;21768;48.562;13.414;2022-09-12T09:35:15;97470.41;;;20.11;65.41
35649;BME280;21768;48.562;13.414;2022-09-12T09:37:43;97469.03;;;20.22;63.98
35649;BME280;21768;48.562;13.414;2022-09-12T09:40:40;97473.69;;;20.36;64.10
35649;BME280;21768;48.562;13.414;2022-09-12T09:43:20;97476.59;;;20.47;63.74
35649;BME280;21768;48.562;13.414;2022-09-12T09:45:48;97460.81;;;22.06;61.20
35649;BME280;21768;48.562;13.414;2022-09-12T09:50:48;97448.31;;;26.58;49.30
35649;BME280;21768;48.562;13.414;2022-09-12T09:53:33;97451.38;;;28.96;45.54
35649;BME280;21768;48.562;13.414;2022-09-12T09:56:05;97455.97;;;29.71;41.38
35649;BME280;21768;48.562;13.414;2022-09-12T09:58:34;97449.66;;;29.99;40.90
35649;BME280;21768;48.562;13.414;2022-09-12T10:01:05;97452.94;;;31.41;37.69
35649;BME280;21768;48.562;13.414;2022-09-12T10:03:37;97440.94;;;31.80;35.49
35649;BME280;21768;48.562;13.414;2022-09-12T10:08:46;97446.34;;;30.57;36.96
35649;BME280;21768;48.562;13.414;2022-09-12T10:11:19;97441.06;;;29.90;38.98
35649;BME280;21768;48.562;13.414;2022-09-12T10:16:20;97430.91;;;28.44;41.84
35649;BME280;21768;48.562;13.414;2022-09-12T10:18:46;97437.69;;;29.80;40.41
35649;BME280;21768;48.562;13.414;2022-09-12T10:21:15;97440.88;;;32.69;34.99
35649;BME280;21768;48.562;13.414;2022-09-12T10:23:42;97427.47;;;32.03;35.71
35649;BME280;21768;48.562;13.414;2022-09-12T10:26:10;97429.94;;;29.72;37.37
35649;BME280;21768;48.562;13.414;2022-09-12T10:28:38;97431.81;;;28.36;41.59
35649;BME280;21768;48.562;13.414;2022-09-12T10:31:06;97428.13;;;28.72;41.01
35649;BME280;21768;48.562;13.414;2022-09-12T10:33:40;97434.66;;;29.31;39.38
35649;BME280;21768;48.562;13.414;2022-09-12T10:36:07;97431.56;;;29.84;40.14
35649;BME280;21768;48.562;13.414;2022-09-12T10:38:33;97423.44;;;30.81;38.47
35649;BME280;21768;48.562;13.414;2022-09-12T10:41:04;97428.69;;;31.85;34.64
35649;BME280;21768;48.562;13.414;2022-09-12T10:46:22;97417.69;;;35.40;30.19
35649;BME280;21768;48.562;13.414;2022-09-12T10:48:50;97435.44;;;37.02;27.69
35649;BME280;21768;48.562;13.414;2022-09-12T10:53:49;97417.78;;;37.88;25.74
35649;BME280;21768;48.562;13.414;2022-09-12T10:56:17;97418.28;;;38.56;25.00
35649;BME280;21768;48.562;13.414;2022-09-12T11:01:31;97413.88;;;36.24;26.81
35649;BME280;21768;48.562;13.414;2022-09-12T11:07:14;97406.34;;;32.55;31.76
35649;BME280;21768;48.562;13.414;2022-09-12T11:09:58;97403.03;;;32.05;32.29
35649;BME280;21768;48.562;13.414;2022-09-12T11:23:34;97388.66;;;33.40;30.08
35649;BME280;21768;48.562;13.414;2022-09-12T11:29:04;97392.66;;;33.18;30.98
35649;BME280;21768;48.562;13.414;2022-09-12T11:31:53;97392.22;;;32.24;31.99
35649;BME280;21768;48.562;13.414;2022-09-12T11:34:39;97384.00;;;31.99;30.68
35649;BME280;21768;48.562;13.414;2022-09-12T11:40:06;97383.63;;;31.74;32.10
35649;BME280;21768;48.562;13.414;2022-09-12T11:42:40;97377.16;;;31.47;31.02
35649;BME280;21768;48.562;13.414;2022-09-12T11:45:14;97378.97;;;30.30;32.14
35649;BME280;21768;48.562;13.414;2022-09-12T11:47:45;97389.97;;;28.86;34.71
35649;BME280;21768;48.562;13.414;2022-09-12T11:50:32;97381.03;;;27.71;36.86
35649;BME280;21768;48.562;13.414;2022-09-12T11:53:04;97383.66;;;27.16;38.49
35649;BME280;21768;48.562;13.414;2022-09-12T11:55:42;97375.84;;;26.81;36.58
35649;BME280;21768;48.562;13.414;2022-09-12T11:58:10;97371.50;;;26.37;39.46
35649;BME280;21768;48.562;13.414;2022-09-12T12:00:46;97371.47;;;26.34;38.15
35649;BME280;21768;48.562;13.414;2022-09-12T12:03:29;97376.47;;;25.87;39.24
35649;BME280;21768;48.562;13.414;2022-09-12T12:06:11;97379.66;;;25.45;41.37
35649;BME280;21768;48.562;13.414;2022-09-12T12:08:40;97377.13;;;25.56;40.54
35649;BME280;21768;48.562;13.414;2022-09-12T12:11:07;97369.47;;;25.66;42.15
35649;BME280;21768;48.562;13.414;2022-09-12T12:13:43;97364.34;;;25.75;42.61
35649;BME280;21768;48.562;13.414;2022-09-12T12:16:27;97367.78;;;25.73;41.77
35649;BME280;21768;48.562;13.414;2022-09-12T12:18:55;97363.38;;;25.60;41.72
35649;BME280;21768;48.562;13.414;2022-09-12T12:34:40;97347.69;;;25.23;41.68
35649;BME280;21768;48.562;13.414;2022-09-12T12:40:08;97341.78;;;25.46;40.99
35649;BME280;21768;48.562;13.414;2022-09-12T12:47:40;97350.53;;;25.66;42.99
35649;BME280;21768;48.562;13.414;2022-09-12T12:50:21;97346.28;;;25.83;40.77
35649;BME280;21768;48.562;13.414;2022-09-12T12:53:00;97337.72;;;25.93;42.67
35649;BME280;21768;48.562;13.414;2022-09-12T12:55:31;97341.19;;;25.98;39.85
35649;BME280;21768;48.562;13.414;2022-09-12T12:58:00;97333.38;;;25.91;39.80
35649;BME280;21768;48.562;13.414;2022-09-12T13:05:26;97332.59;;;26.13;40.42
35649;BME280;21768;48.562;13.414;2022-09-12T13:07:55;97329.13;;;26.13;38.90
35649;BME280;21768;48.562;13.414;2022-09-12T13:10:24;97330.00;;;26.10;40.30
35649;BME280;21768;48.562;13.414;2022-09-12T13:12:55;97318.78;;;26.11;38.64
35649;BME280;21768;48.562;13.414;2022-09-12T13:18:14;97317.97;;;26.23;38.54
35649;BME280;21768;48.562;13.414;2022-09-12T13:23:27;97310.19;;;26.29;38.31
35649;BME280;21768;48.562;13.414;2022-09-12T13:25:55;97309.41;;;26.40;40.46
35649;BME280;21768;48.562;13.414;2022-09-12T13:28:21;97311.97;;;26.53;39.64
35649;BME280;21768;48.562;13.414;2022-09-12T13:33:40;97304.22;;;26.75;38.10
35649;BME280;21768;48.562;13.414;2022-09-12T13:36:51;97298.16;;;26.81;37.01
35649;BME280;21768;48.562;13.414;2022-09-12T13:39:26;97304.22;;;26.57;37.07
35649;BME280;21768;48.562;13.414;2022-09-12T13:44:45;97296.44;;;26.51;37.49
35649;BME280;21768;48.562;13.414;2022-09-12T13:47:24;97292.13;;;26.55;37.87
35649;BME280;21768;48.562;13.414;2022-09-12T13:49:51;97289.56;;;26.65;38.38
35649;BME280;21768;48.562;13.414;2022-09-12T13:52:22;97282.63;;;26.73;37.32
35649;BME280;21768;48.562;13.414;2022-09-12T13:54:53;97280.94;;;26.72;36.01
35649;BME280;21768;48.562;13.414;2022-09-12T13:59:59;97274.03;;;26.65;36.84
35649;BME280;21768;48.562;13.414;2022-09-12T14:02:28;97272.28;;;26.51;36.01
35649;BME280;21768;48.562;13.414;2022-09-12T14:04:55;97273.16;;;26.43;36.73
35649;BME280;21768;48.562;13.414;2022-09-12T14:07:49;97279.19;;;26.41;37.78
35649;BME280;21768;48.562;13.414;2022-09-12T14:10:31;97270.56;;;26.39;37.52
35649;BME280;21768;48.562;13.414;2022-09-12T14:12:58;97274.03;;;26.41;37.12
35649;BME280;21768;48.562;13.414;2022-09-12T14:15:27;97274.88;;;26.43;37.96
35649;BME280;21768;48.562;13.414;2022-09-12T14:17:56;97265.38;;;26.30;37.71
35649;BME280;21768;48.562;13.414;2022-09-12T14:20:27;97267.94;;;26.21;39.27
35649;BME280;21768;48.562;13.414;2022-09-12T14:23:02;97272.19;;;26.02;37.47
35649;BME280;21768;48.562;13.414;2022-09-12T14:25:35;97264.44;;;26.00;39.79
35649;BME280;21768;48.562;13.414;2022-09-12T14:28:02;97266.19;;;26.07;40.83
35649;BME280;21768;48.562;13.414;2022-09-12T14:30:30;97264.47;;;26.11;38.51
35649;BME280;21768;48.562;13.414;2022-09-12T14:35:33;97265.34;;;26.15;38.76
35649;BME280;21768;48.562;13.414;2022-09-12T14:38:07;97261.00;;;26.06;39.38
35649;BME280;21768;48.562;13.414;2022-09-12T14:40:47;97263.59;;;26.03;40.09
35649;BME280;21768;48.562;13.414;2022-09-12T14:43:24;97266.16;;;25.89;39.71
35649;BME280;21768;48.562;13.414;2022-09-12T14:46:01;97249.78;;;25.95;39.45
35649;BME280;21768;48.562;13.414;2022-09-12T14:48:30;97248.91;;;25.88;39.02
35649;BME280;21768;48.562;13.414;2022-09-12T14:50:57;97244.59;;;25.90;37.65
35649;BME280;21768;48.562;13.414;2022-09-12T14:53:30;97239.44;;;25.87;37.68
35649;BME280;21768;48.562;13.414;2022-09-12T14:56:05;97235.13;;;25.94;37.64
35649;BME280;21768;48.562;13.414;2022-09-12T14:58:31;97246.34;;;26.00;37.59
35649;BME280;21768;48.562;13.414;2022-09-12T15:06:00;97237.72;;;26.01;37.57
35649;BME280;21768;48.562;13.414;2022-09-12T15:08:28;97236.03;;;26.14;37.32
35649;BME280;21768;48.562;13.414;2022-09-12T15:10:54;97234.34;;;26.36;37.82
35649;BME280;21768;48.562;13.414;2022-09-12T15:13:27;97230.88;;;26.52;37.56
35649;BME280;21768;48.562;13.414;2022-09-12T15:16:29;97221.34;;;26.78;38.54
35649;BME280;21768;48.562;13.414;2022-09-12T15:18:54;97225.66;;;26.92;38.24
35649;BME280;21768;48.562;13.414;2022-09-12T15:21:20;97222.22;;;26.85;38.24
35649;BME280;21768;48.562;13.414;2022-09-12T15:23:47;97227.44;;;26.71;38.25
35649;BME280;21768;48.562;13.414;2022-09-12T15:26:21;97225.72;;;26.46;40.09
35649;BME280;21768;48.562;13.414;2022-09-12T15:28:47;97227.38;;;26.10;40.91
35649;BME280;21768;48.562;13.414;2022-09-12T15:33:48;97231.53;;;25.46;42.63
35649;BME280;21768;48.562;13.414;2022-09-12T15:36:16;97223.69;;;25.20;42.54
35649;BME280;21768;48.562;13.414;2022-09-12T15:38:43;97218.41;;;25.02;42.39
35649;BME280;21768;48.562;13.414;2022-09-12T15:41:16;97218.28;;;24.87;43.70
35649;BME280;21768;48.562;13.414;2022-09-12T15:43:43;97223.31;;;24.65;45.81